METAR Torp

ENTO 170920Z 36004KT 9999 SCT008 M02/M02 Q1018

METAR Gardermoen

ENGM 170920Z VRB02KT 9999 SCT007 BKN042 M04/M05 Q1017 TEMPO 4000 -SN BKN007

Webcam Kjeller